Time,TemperatureF,DewpointF,PressureIn,WindDirection,WindDirectionDegrees,WindSpeedMPH,WindSpeedGustMPH,Humidity,HourlyPrecipIn,Conditions,Clouds,dailyrainin,SoftwareType,DateUTC
2014-02-17 00:00:00,53.4,48.7,30.02,NW,307,0.0,0.0,84,0.00,CLR,FEW,0.00,WeatherDisplay:10.37,2014-02-16 23:00:00,
2014-02-17 01:00:00,53.3,48.6,30.02,NW,307,0.0,0.0,84,0.00,CLR,FEW,0.00,WeatherDisplay:10.37,2014-02-17 00:00:00,
2014-02-17 02:00:00,52.9,48.8,30.00,NW,307,0.0,0.0,86,0.00,CLR,FEW,0.00,WeatherDisplay:10.37,2014-02-17 01:00:00,
2014-02-17 03:00:00,52.2,48.4,30.01,NW,315,0.0,0.0,87,0.00,CLR,FEW,0.00,WeatherDisplay:10.37,2014-02-17 02:00:00,
2014-02-17 04:00:00,51.7,47.9,30.01,NNW,331,0.0,1.0,87,0.00,CLR,FEW,0.00,WeatherDisplay:10.37,2014-02-17 03:00:00,
2014-02-17 05:00:00,51.5,47.8,30.02,North,349,0.0,2.0,87,0.00,CLR,FEW,0.00,WeatherDisplay:10.37,2014-02-17 04:00:00,
2014-02-17 06:00:00,51.8,47.4,30.03,NW,314,0.0,3.0,85,0.00,CLR,FEW,0.00,WeatherDisplay:10.37,2014-02-17 05:00:00,
2014-02-17 07:00:00,55.1,49.7,30.04,NW,315,0.0,1.0,82,0.00,CLR,FEW,0.00,WeatherDisplay:10.37,2014-02-17 06:00:00,
2014-02-17 08:00:00,61.9,50.4,30.05,SSE,159,0.0,0.0,66,0.00,CLR,FEW,0.00,WeatherDisplay:10.37,2014-02-17 07:00:00,
2014-02-17 09:00:00,66.2,50.1,30.06,SE,146,0.0,3.0,56,0.00,CLR,FEW,0.00,WeatherDisplay:10.37,2014-02-17 08:00:00,
2014-02-17 10:00:00,67.7,49.4,30.05,SSE,152,0.0,5.0,52,0.00,CLR,FEW,0.00,WeatherDisplay:10.37,2014-02-17 09:00:00,
2014-02-17 11:00:00,68.9,48.9,30.04,SSW,195,2.0,7.0,49,0.00,CLR,FEW,0.00,WeatherDisplay:10.37,2014-02-17 10:00:00,
2014-02-17 12:00:00,70.1,46.0,30.04,South,181,6.0,13.0,42,0.00,CLR,FEW,0.00,WeatherDisplay:10.37,2014-02-17 11:00:00,
2014-02-17 13:00:00,70.7,45.8,30.03,SSW,199,2.0,12.0,41,0.00,CLR,FEW,0.00,WeatherDisplay:10.37,2014-02-17 12:00:00,
2014-02-17 14:00:00,70.0,43.9,30.03,SSW,204,2.0,14.0,39,0.00,CLR,FEW,0.00,WeatherDisplay:10.37,2014-02-17 13:00:00,
2014-02-17 15:00:00,69.5,44.8,30.03,SSW,204,3.0,10.0,41,0.00,CLR,FEW,0.00,WeatherDisplay:10.37,2014-02-17 14:00:00,
2014-02-17 16:00:00,66.6,45.1,30.03,SW,225,2.0,9.0,46,0.00,CLR,FEW,0.00,WeatherDisplay:10.37,2014-02-17 15:00:00,
2014-02-17 17:00:00,63.2,44.2,30.05,SSW,212,1.0,7.0,50,0.00,CLR,FEW,0.00,WeatherDisplay:10.37,2014-02-17 16:00:00,
2014-02-17 18:00:00,60.1,47.0,30.06,North,11,0.0,2.0,62,0.00,CLR,FEW,0.00,WeatherDisplay:10.37,2014-02-17 17:00:00,
2014-02-17 19:00:00,59.1,46.1,30.06,North,359,1.0,4.0,62,0.00,CLR,FEW,0.00,WeatherDisplay:10.37,2014-02-17 18:00:00,
2014-02-17 20:00:00,57.2,46.4,30.07,North,1,0.0,1.0,67,0.00,CLR,FEW,0.00,WeatherDisplay:10.37,2014-02-17 19:00:00,
2014-02-17 21:00:00,56.5,45.7,30.08,NW,317,1.0,3.0,67,0.00,CLR,FEW,0.00,WeatherDisplay:10.37,2014-02-17 20:00:00,
2014-02-17 22:00:00,56.2,44.2,30.08,NNW,333,1.0,3.0,64,0.00,CLR,FEW,0.00,WeatherDisplay:10.37,2014-02-17 21:00:00,
2014-02-17 23:00:00,56.7,43.8,30.08,NW,316,1.0,3.0,62,0.00,CLR,FEW,0.00,WeatherDisplay:10.37,2014-02-17 22:00:00,